地図

経路データ

SID SEASON NUMBER BASIN SUBBASIN NAME ISO_TIME NATURE LAT LON WMO_WIND WMO_PRES WMO_AGENCY TRACK_TYPE DIST2LAND LANDFALL IFLAG USA_AGENCY USA_ATCF_ID USA_LAT USA_LON USA_RECORD USA_STATUS USA_WIND USA_PRES USA_SSHS USA_R34_NE USA_R34_SE USA_R34_SW USA_R34_NW USA_R50_NE USA_R50_SE USA_R50_SW USA_R50_NW USA_R64_NE USA_R64_SE USA_R64_SW USA_R64_NW USA_POCI USA_ROCI USA_RMW USA_EYE TOKYO_LAT TOKYO_LON TOKYO_GRADE TOKYO_WIND TOKYO_PRES TOKYO_R50_DIR TOKYO_R50_LONG TOKYO_R50_SHORT TOKYO_R30_DIR TOKYO_R30_LONG TOKYO_R30_SHORT TOKYO_LAND CMA_LAT CMA_LON CMA_CAT CMA_WIND CMA_PRES HKO_LAT HKO_LON HKO_CAT HKO_WIND HKO_PRES NEWDELHI_LAT NEWDELHI_LON NEWDELHI_GRADE NEWDELHI_WIND NEWDELHI_PRES NEWDELHI_CI NEWDELHI_DP NEWDELHI_POCI REUNION_LAT REUNION_LON REUNION_TYPE REUNION_WIND REUNION_PRES REUNION_TNUM REUNION_CI REUNION_RMW REUNION_R34_NE REUNION_R34_SE REUNION_R34_SW REUNION_R34_NW REUNION_R50_NE REUNION_R50_SE REUNION_R50_SW REUNION_R50_NW REUNION_R64_NE REUNION_R64_SE REUNION_R64_SW REUNION_R64_NW BOM_LAT BOM_LON BOM_TYPE BOM_WIND BOM_PRES BOM_TNUM BOM_CI BOM_RMW BOM_R34_NE BOM_R34_SE BOM_R34_SW BOM_R34_NW BOM_R50_NE BOM_R50_SE BOM_R50_SW BOM_R50_NW BOM_R64_NE BOM_R64_SE BOM_R64_SW BOM_R64_NW BOM_ROCI BOM_POCI BOM_EYE BOM_POS_METHOD BOM_PRES_METHOD NADI_LAT NADI_LON NADI_CAT NADI_WIND NADI_PRES WELLINGTON_LAT WELLINGTON_LON WELLINGTON_WIND WELLINGTON_PRES DS824_LAT DS824_LON DS824_STAGE DS824_WIND DS824_PRES TD9636_LAT TD9636_LON TD9636_STAGE TD9636_WIND TD9636_PRES TD9635_LAT TD9635_LON TD9635_WIND TD9635_PRES TD9635_ROCI NEUMANN_LAT NEUMANN_LON NEUMANN_CLASS NEUMANN_WIND NEUMANN_PRES MLC_LAT MLC_LON MLC_CLASS MLC_WIND MLC_PRES USA_GUST BOM_GUST BOM_GUST_PER REUNION_GUST REUNION_GUST_PER USA_SEAHGT USA_SEARAD_NE USA_SEARAD_SE USA_SEARAD_SW USA_SEARAD_NW STORM_SPEED STORM_DIR
1979239N22153 1979 77 WP MM NOT_NAMED 1979-08-27 00:00:00 TS 21.5000 152.500 main 1929 1922 __O___________ -1 21.5000 152.500 0 17 1010 16 239
1979239N22153 1979 77 WP MM NOT_NAMED 1979-08-27 03:00:00 TS 21.0983 151.772 main 1926 1919 __P___________ -1 21.0983 151.772 0 17 1010 15 239
1979239N22153 1979 77 WP MM NOT_NAMED 1979-08-27 06:00:00 TS 20.7000 151.100 main 1926 1921 __O___________ -1 20.7000 151.100 0 17 1010 14 236
1979239N22153 1979 77 WP MM NOT_NAMED 1979-08-27 09:00:00 TS 20.3197 150.520 main 1932 1927 __P___________ -1 20.3197 150.520 0 17 1009 12 236
1979239N22153 1979 77 WP MM NOT_NAMED 1979-08-27 12:00:00 TS 20.0000 150.000 main 1936 1931 __O___________ -1 20.0000 150.000 0 17 1008 11 240
1979239N22153 1979 77 WP MM NOT_NAMED 1979-08-27 15:00:00 TS 19.7698 149.493 main 1931 1927 __P___________ -1 19.7698 149.493 0 17 1008 10 247
1979239N22153 1979 77 WP MM NOT_NAMED 1979-08-27 18:00:00 TS 19.6000 149.000 main 1928 1915 __O___________ -1 19.6000 149.000 0 17 1008 10 251
1979239N22153 1979 77 WP MM NOT_NAMED 1979-08-27 21:00:00 TS 19.4425 148.485 main 1926 1913 __P___________ -1 19.4425 148.485 0 17 1008 10 252
1979239N22153 1979 77 WP MM NOT_NAMED 1979-08-28 00:00:00 TS 19.3000 148.000 main 1915 1911 __O___________ -1 19.3000 148.000 0 17 1008 9 250
1979239N22153 1979 77 WP MM NOT_NAMED 1979-08-28 03:00:00 TS 19.1273 147.585 main 1920 1912 __P___________ -1 19.1273 147.585 0 18 1007 8 248
1979239N22153 1979 77 WP MM NOT_NAMED 1979-08-28 06:00:00 TS 19.0000 147.200 main 1915 1904 __O___________ -1 19.0000 147.200 0 19 1007 8 257
1979239N22153 1979 77 WP MM NOT_NAMED 1979-08-28 09:00:00 TS 18.9476 146.763 main 1911 1887 __P___________ -1 18.9476 146.763 0 19 1006 8 270
1979239N22153 1979 77 WP MM NOT_NAMED 1979-08-28 12:00:00 TS 19.0000 146.400 main 1887 1859 __O___________ -1 19.0000 146.400 0 19 1006 6 292
1979239N22153 1979 77 WP MM NOT_NAMED 1979-08-28 15:00:00 TS 19.1624 146.205 main 1859 1834 __P___________ -1 19.1624 146.205 0 19 1006 5 325
1979239N22153 1979 77 WP MM NOT_NAMED 1979-08-28 18:00:00 TS 19.4000 146.100 main 1834 1799 __O___________ -1 19.4000 146.100 0 19 1006 5 340
1979239N22153 1979 77 WP MM NOT_NAMED 1979-08-28 21:00:00 TS 19.6649 146.015 main 1799 1775 __P___________ -1 19.6649 146.015 0 21 1006 5 339
1979239N22153 1979 77 WP MM NOT_NAMED 1979-08-29 00:00:00 TS 19.9000 145.900 main 1775 1758 __O___________ -1 19.9000 145.900 1 23 1006 5 318
1979239N22153 1979 77 WP MM NOT_NAMED 1979-08-29 03:00:00 TS 20.0301 145.665 main 1758 1738 __P___________ -1 20.0301 145.665 1 23 1006 5 293
1979239N22153 1979 77 WP MM NOT_NAMED 1979-08-29 06:00:00 TS 20.1000 145.400 main 1738 1721 __O___________ -1 20.1000 145.400 1 23 1006 5 287
1979239N22153 1979 77 WP MM NOT_NAMED 1979-08-29 09:00:00 TS 20.1650 145.192 main 1721 1715 __P___________ -1 20.1650 145.192 1 23 1005 4 285
1979239N22153 1979 77 WP MM NOT_NAMED 1979-08-29 12:00:00 TS 20.2000 145.000 main 1715 1710 __O___________ -1 20.2000 145.000 1 23 1004 4 278
1979239N22153 1979 77 WP MM NOT_NAMED 1979-08-29 15:00:00 TS 20.2149 144.808 main 1710 1704 __P___________ -1 20.2149 144.808 1 23 1004 4 270
1979239N22153 1979 77 WP MM NOT_NAMED 1979-08-29 18:00:00 TS 20.2000 144.600 main 1704 1699 __O___________ -1 20.2000 144.600 1 23 1004 4 262
1979239N22153 1979 77 WP MM NOT_NAMED 1979-08-29 21:00:00 TS 20.1575 144.357 main 1699 1696 __P___________ -1 20.1575 144.357 1 23 1005 5 258
1979239N22153 1979 77 WP MM NOT_NAMED 1979-08-30 00:00:00 TS 20.1000 144.100 main 1696 1687 __O___________ -1 20.1000 144.100 1 23 1006 5 258
1979239N22153 1979 77 WP MM NOT_NAMED 1979-08-30 03:00:00 TS 20.0574 143.858 main 1687 1682 __P___________ -1 20.0574 143.858 1 23 1006 5 258
1979239N22153 1979 77 WP MM NOT_NAMED 1979-08-30 06:00:00 TS 20.0000 143.600 main 1683 1674 __O___________ -1 20.0000 143.600 1 23 1006 5 254
1979239N22153 1979 77 WP MM NOT_NAMED 1979-08-30 09:00:00 TS 19.9101 143.310 main 1680 1671 __P___________ -1 19.9101 143.310 1 23 1006 6 250
1979239N22153 1979 77 WP MM NOT_NAMED 1979-08-30 12:00:00 TS 19.8000 143.000 main 1677 __O___________ -1 19.8000 143.000 1 23 1006 6 249

デジタル台風データ・検索

IBTrACS Databaseについて

本データベースは、米国NOAAが公開する1842年以降の世界の熱帯低気圧のベストトラックデータアーカイブInternational Best Track Archive for Climate Stewardship (IBTrACS)を、ウェブで閲覧しやすい形式に変換したものです。

最終更新日:2021-10-19